sensor_id;sensor_type;location;lat;lon;timestamp;P1;durP1;ratioP1;P2;durP2;ratioP2
71941;SDS011;59997;53.300;-6.260;2022-11-15T00:00:55;0.70;;;0.10;;
71941;SDS011;59997;53.300;-6.260;2022-11-15T00:03:21;0.82;;;0.10;;
71941;SDS011;59997;53.300;-6.260;2022-11-15T00:05:51;0.50;;;0.10;;
71941;SDS011;59997;53.300;-6.260;2022-11-15T00:08:17;0.90;;;0.10;;
71941;SDS011;59997;53.300;-6.260;2022-11-15T00:10:43;0.65;;;0.10;;
71941;SDS011;59997;53.300;-6.260;2022-11-15T00:13:19;0.50;;;0.10;;
71941;SDS011;59997;53.300;-6.260;2022-11-15T00:15:45;0.73;;;0.10;;
71941;SDS011;59997;53.300;-6.260;2022-11-15T00:18:12;0.77;;;0.10;;
71941;SDS011;59997;53.300;-6.260;2022-11-15T00:20:38;0.98;;;0.20;;
71941;SDS011;59997;53.300;-6.260;2022-11-15T00:23:04;0.80;;;0.10;;
71941;SDS011;59997;53.300;-6.260;2022-11-15T00:25:30;1.27;;;0.20;;
71941;SDS011;59997;53.300;-6.260;2022-11-15T00:27:56;0.70;;;0.10;;
71941;SDS011;59997;53.300;-6.260;2022-11-15T00:30:23;1.42;;;0.22;;
71941;SDS011;59997;53.300;-6.260;2022-11-15T00:32:49;0.60;;;0.10;;
71941;SDS011;59997;53.300;-6.260;2022-11-15T00:35:15;0.73;;;0.10;;
71941;SDS011;59997;53.300;-6.260;2022-11-15T00:37:41;0.70;;;0.10;;
71941;SDS011;59997;53.300;-6.260;2022-11-15T00:40:07;0.98;;;0.10;;
71941;SDS011;59997;53.300;-6.260;2022-11-15T00:42:33;0.82;;;0.20;;
71941;SDS011;59997;53.300;-6.260;2022-11-15T00:44:59;1.00;;;0.17;;
71941;SDS011;59997;53.300;-6.260;2022-11-15T00:47:24;0.70;;;0.10;;
71941;SDS011;59997;53.300;-6.260;2022-11-15T00:49:50;0.60;;;0.10;;
71941;SDS011;59997;53.300;-6.260;2022-11-15T00:52:15;0.70;;;0.10;;
71941;SDS011;59997;53.300;-6.260;2022-11-15T00:54:41;0.77;;;0.10;;
71941;SDS011;59997;53.300;-6.260;2022-11-15T00:57:06;1.13;;;0.20;;
71941;SDS011;59997;53.300;-6.260;2022-11-15T00:59:31;0.80;;;0.10;;
71941;SDS011;59997;53.300;-6.260;2022-11-15T01:01:57;1.00;;;0.20;;
71941;SDS011;59997;53.300;-6.260;2022-11-15T01:04:22;0.80;;;0.10;;
71941;SDS011;59997;53.300;-6.260;2022-11-15T01:06:48;0.60;;;0.10;;
71941;SDS011;59997;53.300;-6.260;2022-11-15T01:09:13;19.48;;;2.85;;
71941;SDS011;59997;53.300;-6.260;2022-11-15T01:11:39;1.20;;;0.20;;
71941;SDS011;59997;53.300;-6.260;2022-11-15T01:14:05;0.90;;;0.10;;
71941;SDS011;59997;53.300;-6.260;2022-11-15T01:16:30;0.77;;;0.10;;
71941;SDS011;59997;53.300;-6.260;2022-11-15T01:18:57;0.52;;;0.10;;
71941;SDS011;59997;53.300;-6.260;2022-11-15T01:21:23;0.53;;;0.10;;
71941;SDS011;59997;53.300;-6.260;2022-11-15T01:23:48;0.60;;;0.10;;
71941;SDS011;59997;53.300;-6.260;2022-11-15T01:26:19;0.75;;;0.10;;
71941;SDS011;59997;53.300;-6.260;2022-11-15T01:28:44;0.90;;;0.20;;
71941;SDS011;59997;53.300;-6.260;2022-11-15T01:31:15;0.63;;;0.10;;
71941;SDS011;59997;53.300;-6.260;2022-11-15T01:33:42;0.88;;;0.20;;
71941;SDS011;59997;53.300;-6.260;2022-11-15T01:36:09;0.80;;;0.10;;
71941;SDS011;59997;53.300;-6.260;2022-11-15T01:38:36;0.65;;;0.10;;
71941;SDS011;59997;53.300;-6.260;2022-11-15T01:41:02;1.25;;;0.20;;
71941;SDS011;59997;53.300;-6.260;2022-11-15T01:43:35;0.80;;;0.10;;
71941;SDS011;59997;53.300;-6.260;2022-11-15T01:46:06;0.82;;;0.10;;
71941;SDS011;59997;53.300;-6.260;2022-11-15T01:48:44;0.88;;;0.20;;
71941;SDS011;59997;53.300;-6.260;2022-11-15T01:51:10;0.80;;;0.10;;
71941;SDS011;59997;53.300;-6.260;2022-11-15T01:53:38;0.70;;;0.10;;
71941;SDS011;59997;53.300;-6.260;2022-11-15T01:56:08;1.08;;;0.20;;
71941;SDS011;59997;53.300;-6.260;2022-11-15T01:58:36;0.80;;;0.17;;
71941;SDS011;59997;53.300;-6.260;2022-11-15T02:01:03;1.00;;;0.30;;
71941;SDS011;59997;53.300;-6.260;2022-11-15T02:03:34;0.83;;;0.10;;
71941;SDS011;59997;53.300;-6.260;2022-11-15T02:06:06;0.63;;;0.10;;
71941;SDS011;59997;53.300;-6.260;2022-11-15T02:08:32;0.70;;;0.10;;
71941;SDS011;59997;53.300;-6.260;2022-11-15T02:10:59;1.08;;;0.20;;
71941;SDS011;59997;53.300;-6.260;2022-11-15T02:13:24;0.37;;;0.10;;
71941;SDS011;59997;53.300;-6.260;2022-11-15T02:46:38;0.98;;;0.17;;
71941;SDS011;59997;53.300;-6.260;2022-11-15T02:49:25;0.80;;;0.20;;
71941;SDS011;59997;53.300;-6.260;2022-11-15T02:51:54;0.82;;;0.10;;
71941;SDS011;59997;53.300;-6.260;2022-11-15T02:54:22;0.60;;;0.10;;
71941;SDS011;59997;53.300;-6.260;2022-11-15T02:56:49;0.50;;;0.10;;
71941;SDS011;59997;53.300;-6.260;2022-11-15T03:10:35;0.50;;;0.10;;
71941;SDS011;59997;53.300;-6.260;2022-11-15T03:15:54;0.50;;;0.10;;
71941;SDS011;59997;53.300;-6.260;2022-11-15T03:18:30;0.90;;;0.20;;
71941;SDS011;59997;53.300;-6.260;2022-11-15T03:21:01;0.53;;;0.10;;
71941;SDS011;59997;53.300;-6.260;2022-11-15T03:23:30;0.80;;;0.10;;
71941;SDS011;59997;53.300;-6.260;2022-11-15T03:25:58;0.55;;;0.10;;
71941;SDS011;59997;53.300;-6.260;2022-11-15T03:28:31;0.50;;;0.10;;
71941;SDS011;59997;53.300;-6.260;2022-11-15T03:31:00;0.68;;;0.10;;
71941;SDS011;59997;53.300;-6.260;2022-11-15T03:33:47;0.50;;;0.10;;
71941;SDS011;59997;53.300;-6.260;2022-11-15T03:36:14;0.40;;;0.10;;
71941;SDS011;59997;53.300;-6.260;2022-11-15T03:38:40;0.52;;;0.10;;
71941;SDS011;59997;53.300;-6.260;2022-11-15T03:41:09;0.63;;;0.10;;
71941;SDS011;59997;53.300;-6.260;2022-11-15T03:43:52;0.93;;;0.20;;
71941;SDS011;59997;53.300;-6.260;2022-11-15T03:46:32;0.67;;;0.10;;
71941;SDS011;59997;53.300;-6.260;2022-11-15T03:49:15;0.70;;;0.15;;
71941;SDS011;59997;53.300;-6.260;2022-11-15T03:51:45;1.13;;;0.20;;
71941;SDS011;59997;53.300;-6.260;2022-11-15T03:54:11;0.50;;;0.10;;
71941;SDS011;59997;53.300;-6.260;2022-11-15T03:56:37;0.50;;;0.10;;
71941;SDS011;59997;53.300;-6.260;2022-11-15T03:59:03;0.77;;;0.13;;
71941;SDS011;59997;53.300;-6.260;2022-11-15T04:01:29;0.83;;;0.10;;
71941;SDS011;59997;53.300;-6.260;2022-11-15T04:03:54;0.60;;;0.10;;
71941;SDS011;59997;53.300;-6.260;2022-11-15T04:06:20;0.50;;;0.00;;
71941;SDS011;59997;53.300;-6.260;2022-11-15T04:08:45;0.60;;;0.10;;
71941;SDS011;59997;53.300;-6.260;2022-11-15T04:11:11;0.60;;;0.10;;
71941;SDS011;59997;53.300;-6.260;2022-11-15T04:13:36;0.57;;;0.10;;
71941;SDS011;59997;53.300;-6.260;2022-11-15T04:16:02;0.70;;;0.10;;
71941;SDS011;59997;53.300;-6.260;2022-11-15T04:18:27;0.57;;;0.10;;
71941;SDS011;59997;53.300;-6.260;2022-11-15T04:20:53;0.80;;;0.10;;
71941;SDS011;59997;53.300;-6.260;2022-11-15T04:23:36;0.65;;;0.10;;
71941;SDS011;59997;53.300;-6.260;2022-11-15T04:26:22;0.60;;;0.10;;
71941;SDS011;59997;53.300;-6.260;2022-11-15T04:28:48;0.60;;;0.10;;
71941;SDS011;59997;53.300;-6.260;2022-11-15T04:31:32;0.60;;;0.10;;
71941;SDS011;59997;53.300;-6.260;2022-11-15T04:33:58;0.70;;;0.10;;
71941;SDS011;59997;53.300;-6.260;2022-11-15T04:36:24;0.88;;;0.20;;
71941;SDS011;59997;53.300;-6.260;2022-11-15T04:39:08;0.75;;;0.10;;
71941;SDS011;59997;53.300;-6.260;2022-11-15T04:41:33;0.63;;;0.10;;
71941;SDS011;59997;53.300;-6.260;2022-11-15T04:43:59;11.83;;;2.90;;
71941;SDS011;59997;53.300;-6.260;2022-11-15T04:46:24;0.60;;;0.10;;
71941;SDS011;59997;53.300;-6.260;2022-11-15T04:48:51;0.57;;;0.10;;
71941;SDS011;59997;53.300;-6.260;2022-11-15T04:51:16;31.23;;;1.15;;
71941;SDS011;59997;53.300;-6.260;2022-11-15T04:53:43;0.47;;;0.10;;
71941;SDS011;59997;53.300;-6.260;2022-11-15T04:56:09;0.83;;;0.10;;
71941;SDS011;59997;53.300;-6.260;2022-11-15T04:58:34;0.57;;;0.10;;
71941;SDS011;59997;53.300;-6.260;2022-11-15T05:01:09;0.50;;;0.10;;
71941;SDS011;59997;53.300;-6.260;2022-11-15T05:03:39;0.50;;;0.10;;
71941;SDS011;59997;53.300;-6.260;2022-11-15T05:06:24;3.78;;;0.95;;
71941;SDS011;59997;53.300;-6.260;2022-11-15T05:08:50;0.77;;;0.17;;
71941;SDS011;59997;53.300;-6.260;2022-11-15T05:11:16;0.65;;;0.10;;
71941;SDS011;59997;53.300;-6.260;2022-11-15T05:13:41;0.67;;;0.10;;
71941;SDS011;59997;53.300;-6.260;2022-11-15T05:16:07;0.60;;;0.10;;
71941;SDS011;59997;53.300;-6.260;2022-11-15T05:18:32;0.50;;;0.10;;
71941;SDS011;59997;53.300;-6.260;2022-11-15T05:21:04;0.63;;;0.10;;
71941;SDS011;59997;53.300;-6.260;2022-11-15T05:23:31;0.60;;;0.10;;
71941;SDS011;59997;53.300;-6.260;2022-11-15T05:26:01;0.70;;;0.10;;
71941;SDS011;59997;53.300;-6.260;2022-11-15T05:28:28;0.57;;;0.10;;
71941;SDS011;59997;53.300;-6.260;2022-11-15T05:31:00;1.03;;;0.20;;
71941;SDS011;59997;53.300;-6.260;2022-11-15T05:33:27;0.63;;;0.10;;
71941;SDS011;59997;53.300;-6.260;2022-11-15T05:35:57;0.82;;;0.10;;
71941;SDS011;59997;53.300;-6.260;2022-11-15T05:38:30;0.70;;;0.10;;
71941;SDS011;59997;53.300;-6.260;2022-11-15T05:40:56;0.47;;;0.10;;
71941;SDS011;59997;53.300;-6.260;2022-11-15T05:43:22;0.60;;;0.10;;
71941;SDS011;59997;53.300;-6.260;2022-11-15T05:45:48;0.80;;;0.10;;
71941;SDS011;59997;53.300;-6.260;2022-11-15T05:48:14;0.83;;;0.10;;
71941;SDS011;59997;53.300;-6.260;2022-11-15T05:50:41;0.80;;;0.10;;
71941;SDS011;59997;53.300;-6.260;2022-11-15T05:53:10;0.93;;;0.20;;
71941;SDS011;59997;53.300;-6.260;2022-11-15T05:55:38;0.40;;;0.10;;
71941;SDS011;59997;53.300;-6.260;2022-11-15T05:58:04;0.77;;;0.10;;
71941;SDS011;59997;53.300;-6.260;2022-11-15T06:00:30;0.80;;;0.10;;
71941;SDS011;59997;53.300;-6.260;2022-11-15T06:02:55;0.85;;;0.13;;
71941;SDS011;59997;53.300;-6.260;2022-11-15T06:05:20;0.70;;;0.10;;
71941;SDS011;59997;53.300;-6.260;2022-11-15T06:07:46;0.77;;;0.10;;
71941;SDS011;59997;53.300;-6.260;2022-11-15T06:10:11;0.88;;;0.10;;
71941;SDS011;59997;53.300;-6.260;2022-11-15T06:12:38;0.50;;;0.10;;
71941;SDS011;59997;53.300;-6.260;2022-11-15T06:15:03;0.60;;;0.10;;
71941;SDS011;59997;53.300;-6.260;2022-11-15T06:17:29;0.50;;;0.10;;
71941;SDS011;59997;53.300;-6.260;2022-11-15T06:19:54;0.50;;;0.10;;
71941;SDS011;59997;53.300;-6.260;2022-11-15T06:22:20;0.50;;;0.10;;
71941;SDS011;59997;53.300;-6.260;2022-11-15T06:24:45;1.00;;;0.20;;
71941;SDS011;59997;53.300;-6.260;2022-11-15T06:27:11;0.88;;;0.10;;
71941;SDS011;59997;53.300;-6.260;2022-11-15T06:29:37;0.67;;;0.10;;
71941;SDS011;59997;53.300;-6.260;2022-11-15T06:32:02;0.80;;;0.13;;
71941;SDS011;59997;53.300;-6.260;2022-11-15T06:34:28;0.57;;;0.10;;
71941;SDS011;59997;53.300;-6.260;2022-11-15T06:36:53;0.70;;;0.10;;
71941;SDS011;59997;53.300;-6.260;2022-11-15T06:39:19;0.70;;;0.10;;
71941;SDS011;59997;53.300;-6.260;2022-11-15T06:41:45;1.05;;;0.70;;
71941;SDS011;59997;53.300;-6.260;2022-11-15T06:44:11;0.55;;;0.10;;
71941;SDS011;59997;53.300;-6.260;2022-11-15T06:46:36;1.23;;;0.40;;
71941;SDS011;59997;53.300;-6.260;2022-11-15T06:49:02;0.77;;;0.10;;
71941;SDS011;59997;53.300;-6.260;2022-11-15T06:51:27;0.55;;;0.10;;
71941;SDS011;59997;53.300;-6.260;2022-11-15T06:53:53;0.23;;;0.07;;
71941;SDS011;59997;53.300;-6.260;2022-11-15T06:56:19;0.60;;;0.10;;
71941;SDS011;59997;53.300;-6.260;2022-11-15T06:58:44;0.60;;;0.10;;
71941;SDS011;59997;53.300;-6.260;2022-11-15T07:01:10;0.53;;;0.10;;
71941;SDS011;59997;53.300;-6.260;2022-11-15T07:03:37;0.80;;;0.10;;
71941;SDS011;59997;53.300;-6.260;2022-11-15T07:06:05;0.63;;;0.10;;
71941;SDS011;59997;53.300;-6.260;2022-11-15T07:08:31;0.93;;;0.20;;
71941;SDS011;59997;53.300;-6.260;2022-11-15T07:11:00;0.50;;;0.10;;
71941;SDS011;59997;53.300;-6.260;2022-11-15T07:13:28;1.00;;;0.20;;
71941;SDS011;59997;53.300;-6.260;2022-11-15T07:15:57;0.60;;;0.10;;
71941;SDS011;59997;53.300;-6.260;2022-11-15T07:18:26;0.80;;;0.10;;
71941;SDS011;59997;53.300;-6.260;2022-11-15T07:20:52;0.57;;;0.10;;
71941;SDS011;59997;53.300;-6.260;2022-11-15T07:23:18;0.55;;;0.10;;
71941;SDS011;59997;53.300;-6.260;2022-11-15T07:25:43;0.60;;;0.10;;
71941;SDS011;59997;53.300;-6.260;2022-11-15T07:28:09;0.63;;;0.10;;
71941;SDS011;59997;53.300;-6.260;2022-11-15T07:30:34;0.57;;;0.10;;
71941;SDS011;59997;53.300;-6.260;2022-11-15T07:33:00;0.60;;;0.10;;
71941;SDS011;59997;53.300;-6.260;2022-11-15T07:35:26;0.90;;;0.13;;
71941;SDS011;59997;53.300;-6.260;2022-11-15T07:37:59;3.30;;;2.35;;
71941;SDS011;59997;53.300;-6.260;2022-11-15T07:40:27;0.60;;;0.10;;
71941;SDS011;59997;53.300;-6.260;2022-11-15T07:43:06;0.70;;;0.10;;
71941;SDS011;59997;53.300;-6.260;2022-11-15T07:45:32;1.83;;;0.98;;
71941;SDS011;59997;53.300;-6.260;2022-11-15T07:47:59;9.30;;;1.37;;
71941;SDS011;59997;53.300;-6.260;2022-11-15T07:50:25;0.43;;;0.10;;
71941;SDS011;59997;53.300;-6.260;2022-11-15T07:52:56;2.22;;;1.52;;
71941;SDS011;59997;53.300;-6.260;2022-11-15T07:55:24;2.38;;;1.75;;
71941;SDS011;59997;53.300;-6.260;2022-11-15T07:57:51;0.60;;;0.10;;
71941;SDS011;59997;53.300;-6.260;2022-11-15T08:00:17;0.80;;;0.10;;
71941;SDS011;59997;53.300;-6.260;2022-11-15T08:02:43;4.60;;;1.75;;
71941;SDS011;59997;53.300;-6.260;2022-11-15T08:05:08;0.47;;;0.10;;
71941;SDS011;59997;53.300;-6.260;2022-11-15T08:07:34;1.30;;;0.98;;
71941;SDS011;59997;53.300;-6.260;2022-11-15T08:09:59;0.90;;;0.20;;
71941;SDS011;59997;53.300;-6.260;2022-11-15T08:12:27;0.65;;;0.10;;
71941;SDS011;59997;53.300;-6.260;2022-11-15T08:14:54;0.75;;;0.10;;
71941;SDS011;59997;53.300;-6.260;2022-11-15T08:17:20;0.63;;;0.10;;
71941;SDS011;59997;53.300;-6.260;2022-11-15T08:19:46;1.02;;;0.65;;
71941;SDS011;59997;53.300;-6.260;2022-11-15T08:22:12;0.63;;;0.20;;
71941;SDS011;59997;53.300;-6.260;2022-11-15T08:24:38;0.80;;;0.20;;
71941;SDS011;59997;53.300;-6.260;2022-11-15T08:27:04;0.68;;;0.10;;
71941;SDS011;59997;53.300;-6.260;2022-11-15T08:29:30;0.80;;;0.17;;
71941;SDS011;59997;53.300;-6.260;2022-11-15T08:31:55;0.50;;;0.10;;
71941;SDS011;59997;53.300;-6.260;2022-11-15T08:34:21;0.83;;;0.10;;
71941;SDS011;59997;53.300;-6.260;2022-11-15T08:36:47;0.45;;;0.10;;
71941;SDS011;59997;53.300;-6.260;2022-11-15T08:39:12;0.90;;;0.13;;
71941;SDS011;59997;53.300;-6.260;2022-11-15T08:41:38;0.70;;;0.10;;
71941;SDS011;59997;53.300;-6.260;2022-11-15T08:44:04;0.97;;;0.13;;
71941;SDS011;59997;53.300;-6.260;2022-11-15T08:46:30;0.88;;;0.10;;
71941;SDS011;59997;53.300;-6.260;2022-11-15T08:48:55;0.70;;;0.10;;
71941;SDS011;59997;53.300;-6.260;2022-11-15T08:51:21;0.93;;;0.20;;
71941;SDS011;59997;53.300;-6.260;2022-11-15T08:53:46;0.80;;;0.17;;
71941;SDS011;59997;53.300;-6.260;2022-11-15T08:56:13;0.67;;;0.10;;
71941;SDS011;59997;53.300;-6.260;2022-11-15T08:58:39;0.82;;;0.10;;
71941;SDS011;59997;53.300;-6.260;2022-11-15T09:01:05;0.80;;;0.10;;
71941;SDS011;59997;53.300;-6.260;2022-11-15T09:03:31;0.90;;;0.10;;
71941;SDS011;59997;53.300;-6.260;2022-11-15T09:05:58;0.60;;;0.10;;
71941;SDS011;59997;53.300;-6.260;2022-11-15T09:08:25;1.00;;;0.20;;
71941;SDS011;59997;53.300;-6.260;2022-11-15T09:10:54;1.08;;;0.30;;
71941;SDS011;59997;53.300;-6.260;2022-11-15T09:13:20;0.50;;;0.10;;
71941;SDS011;59997;53.300;-6.260;2022-11-15T09:15:45;0.80;;;0.10;;
71941;SDS011;59997;53.300;-6.260;2022-11-15T09:18:11;1.63;;;1.38;;
71941;SDS011;59997;53.300;-6.260;2022-11-15T09:20:37;0.60;;;0.10;;
71941;SDS011;59997;53.300;-6.260;2022-11-15T09:23:03;0.70;;;0.10;;
71941;SDS011;59997;53.300;-6.260;2022-11-15T09:25:29;0.52;;;0.10;;
71941;SDS011;59997;53.300;-6.260;2022-11-15T09:27:55;1.05;;;0.20;;
71941;SDS011;59997;53.300;-6.260;2022-11-15T09:30:21;1.27;;;0.77;;
71941;SDS011;59997;53.300;-6.260;2022-11-15T09:32:47;0.85;;;0.10;;
71941;SDS011;59997;53.300;-6.260;2022-11-15T09:35:13;1.27;;;0.30;;
71941;SDS011;59997;53.300;-6.260;2022-11-15T09:37:38;1.00;;;0.13;;
71941;SDS011;59997;53.300;-6.260;2022-11-15T09:40:04;1.17;;;0.20;;
71941;SDS011;59997;53.300;-6.260;2022-11-15T09:45:31;0.93;;;0.20;;
71941;SDS011;59997;53.300;-6.260;2022-11-15T09:50:49;1.45;;;0.30;;
71941;SDS011;59997;53.300;-6.260;2022-11-15T09:53:26;4.80;;;1.48;;
71941;SDS011;59997;53.300;-6.260;2022-11-15T09:56:03;1.60;;;0.30;;
71941;SDS011;59997;53.300;-6.260;2022-11-15T09:58:48;1.98;;;0.40;;
71941;SDS011;59997;53.300;-6.260;2022-11-15T10:01:39;1.40;;;0.20;;
71941;SDS011;59997;53.300;-6.260;2022-11-15T10:04:13;2.13;;;0.45;;
71941;SDS011;59997;53.300;-6.260;2022-11-15T10:06:42;2.30;;;0.50;;
71941;SDS011;59997;53.300;-6.260;2022-11-15T10:09:19;1.48;;;0.28;;
71941;SDS011;59997;53.300;-6.260;2022-11-15T10:11:51;2.33;;;0.50;;
71941;SDS011;59997;53.300;-6.260;2022-11-15T10:14:18;3.07;;;0.80;;
71941;SDS011;59997;53.300;-6.260;2022-11-15T10:19:46;1.50;;;0.30;;
71941;SDS011;59997;53.300;-6.260;2022-11-15T10:22:34;1.58;;;0.30;;
71941;SDS011;59997;53.300;-6.260;2022-11-15T10:25:09;1.48;;;0.30;;
71941;SDS011;59997;53.300;-6.260;2022-11-15T10:28:09;2.75;;;0.60;;
71941;SDS011;59997;53.300;-6.260;2022-11-15T10:30:40;11.85;;;1.70;;
71941;SDS011;59997;53.300;-6.260;2022-11-15T10:33:29;9.90;;;1.63;;
71941;SDS011;59997;53.300;-6.260;2022-11-15T10:36:19;11.65;;;2.78;;
71941;SDS011;59997;53.300;-6.260;2022-11-15T10:41:21;10.23;;;2.53;;
71941;SDS011;59997;53.300;-6.260;2022-11-15T10:44:11;11.63;;;2.20;;
71941;SDS011;59997;53.300;-6.260;2022-11-15T10:46:47;12.02;;;2.30;;
71941;SDS011;59997;53.300;-6.260;2022-11-15T10:49:29;10.55;;;2.05;;
71941;SDS011;59997;53.300;-6.260;2022-11-15T10:51:57;11.63;;;2.93;;
71941;SDS011;59997;53.300;-6.260;2022-11-15T10:54:43;11.15;;;3.10;;
71941;SDS011;59997;53.300;-6.260;2022-11-15T10:57:20;11.07;;;2.50;;
71941;SDS011;59997;53.300;-6.260;2022-11-15T10:59:52;10.27;;;2.42;;
71941;SDS011;59997;53.300;-6.260;2022-11-15T11:02:26;11.32;;;2.08;;
71941;SDS011;59997;53.300;-6.260;2022-11-15T11:04:52;8.80;;;1.93;;
71941;SDS011;59997;53.300;-6.260;2022-11-15T11:07:22;11.68;;;3.17;;
71941;SDS011;59997;53.300;-6.260;2022-11-15T11:12:44;10.40;;;1.92;;
71941;SDS011;59997;53.300;-6.260;2022-11-15T11:15:14;6.20;;;2.10;;
71941;SDS011;59997;53.300;-6.260;2022-11-15T11:33:31;6.90;;;2.00;;
71941;SDS011;59997;53.300;-6.260;2022-11-15T11:46:33;9.60;;;1.47;;
71941;SDS011;59997;53.300;-6.260;2022-11-15T11:49:08;8.07;;;1.38;;
71941;SDS011;59997;53.300;-6.260;2022-11-15T11:51:40;8.32;;;1.67;;
71941;SDS011;59997;53.300;-6.260;2022-11-15T11:54:52;8.13;;;1.20;;
71941;SDS011;59997;53.300;-6.260;2022-11-15T11:57:16;6.50;;;1.38;;
71941;SDS011;59997;53.300;-6.260;2022-11-15T11:59:56;7.07;;;1.57;;
71941;SDS011;59997;53.300;-6.260;2022-11-15T12:02:34;8.35;;;1.40;;
71941;SDS011;59997;53.300;-6.260;2022-11-15T12:05:15;13.13;;;2.10;;
71941;SDS011;59997;53.300;-6.260;2022-11-15T12:07:47;10.18;;;1.98;;
71941;SDS011;59997;53.300;-6.260;2022-11-15T12:10:22;6.88;;;1.60;;
71941;SDS011;59997;53.300;-6.260;2022-11-15T12:15:38;8.18;;;1.77;;
71941;SDS011;59997;53.300;-6.260;2022-11-15T12:18:13;7.97;;;2.50;;
71941;SDS011;59997;53.300;-6.260;2022-11-15T12:20:42;13.82;;;3.03;;
71941;SDS011;59997;53.300;-6.260;2022-11-15T12:23:42;10.75;;;1.48;;
71941;SDS011;59997;53.300;-6.260;2022-11-15T12:26:18;6.93;;;1.10;;
71941;SDS011;59997;53.300;-6.260;2022-11-15T12:28:51;7.90;;;1.70;;
71941;SDS011;59997;53.300;-6.260;2022-11-15T12:33:58;6.88;;;1.42;;
71941;SDS011;59997;53.300;-6.260;2022-11-15T12:36:33;9.18;;;1.50;;
71941;SDS011;59997;53.300;-6.260;2022-11-15T12:39:06;7.43;;;0.93;;
71941;SDS011;59997;53.300;-6.260;2022-11-15T12:41:42;8.25;;;0.93;;
71941;SDS011;59997;53.300;-6.260;2022-11-15T12:44:12;6.88;;;1.30;;
71941;SDS011;59997;53.300;-6.260;2022-11-15T12:47:03;7.45;;;1.33;;
71941;SDS011;59997;53.300;-6.260;2022-11-15T12:49:47;7.43;;;1.15;;
71941;SDS011;59997;53.300;-6.260;2022-11-15T12:52:13;6.90;;;0.80;;
71941;SDS011;59997;53.300;-6.260;2022-11-15T13:02:24;8.13;;;1.10;;
71941;SDS011;59997;53.300;-6.260;2022-11-15T13:04:52;9.05;;;0.80;;
71941;SDS011;59997;53.300;-6.260;2022-11-15T13:10:00;8.33;;;1.03;;
71941;SDS011;59997;53.300;-6.260;2022-11-15T13:14:53;5.77;;;0.73;;
71941;SDS011;59997;53.300;-6.260;2022-11-15T13:19:50;6.33;;;0.70;;
71941;SDS011;59997;53.300;-6.260;2022-11-15T13:22:24;7.63;;;0.70;;
71941;SDS011;59997;53.300;-6.260;2022-11-15T13:30:59;4.70;;;0.57;;
71941;SDS011;59997;53.300;-6.260;2022-11-15T13:33:45;7.70;;;0.60;;
71941;SDS011;59997;53.300;-6.260;2022-11-15T13:36:24;3.55;;;0.43;;
71941;SDS011;59997;53.300;-6.260;2022-11-15T13:38:54;6.47;;;0.40;;
71941;SDS011;59997;53.300;-6.260;2022-11-15T13:41:31;9.17;;;0.50;;
71941;SDS011;59997;53.300;-6.260;2022-11-15T13:44:01;7.18;;;0.80;;
71941;SDS011;59997;53.300;-6.260;2022-11-15T13:46:29;4.80;;;0.73;;
71941;SDS011;59997;53.300;-6.260;2022-11-15T13:48:57;5.80;;;0.80;;
71941;SDS011;59997;53.300;-6.260;2022-11-15T13:51:37;6.43;;;0.80;;
71941;SDS011;59997;53.300;-6.260;2022-11-15T13:56:47;6.03;;;0.65;;
71941;SDS011;59997;53.300;-6.260;2022-11-15T13:59:30;5.88;;;0.73;;
71941;SDS011;59997;53.300;-6.260;2022-11-15T14:02:01;5.43;;;0.50;;
71941;SDS011;59997;53.300;-6.260;2022-11-15T14:04:35;7.72;;;0.82;;
71941;SDS011;59997;53.300;-6.260;2022-11-15T14:07:02;6.93;;;0.70;;
71941;SDS011;59997;53.300;-6.260;2022-11-15T14:09:35;5.95;;;0.55;;
71941;SDS011;59997;53.300;-6.260;2022-11-15T14:14:54;6.13;;;0.70;;
71941;SDS011;59997;53.300;-6.260;2022-11-15T14:19:55;6.72;;;0.70;;
71941;SDS011;59997;53.300;-6.260;2022-11-15T14:22:28;5.20;;;0.40;;
71941;SDS011;59997;53.300;-6.260;2022-11-15T14:27:44;10.10;;;0.70;;
71941;SDS011;59997;53.300;-6.260;2022-11-15T14:30:30;7.10;;;0.65;;
71941;SDS011;59997;53.300;-6.260;2022-11-15T14:33:01;6.40;;;0.50;;
71941;SDS011;59997;53.300;-6.260;2022-11-15T14:35:27;9.57;;;0.65;;
71941;SDS011;59997;53.300;-6.260;2022-11-15T14:37:53;6.70;;;0.70;;
71941;SDS011;59997;53.300;-6.260;2022-11-15T14:40:19;6.47;;;0.60;;
71941;SDS011;59997;53.300;-6.260;2022-11-15T14:42:46;6.50;;;0.65;;
71941;SDS011;59997;53.300;-6.260;2022-11-15T14:45:14;7.40;;;0.75;;
71941;SDS011;59997;53.300;-6.260;2022-11-15T14:47:42;9.00;;;0.82;;
71941;SDS011;59997;53.300;-6.260;2022-11-15T14:50:13;6.47;;;0.73;;
71941;SDS011;59997;53.300;-6.260;2022-11-15T14:52:41;7.60;;;0.90;;
71941;SDS011;59997;53.300;-6.260;2022-11-15T14:55:15;6.28;;;0.82;;
71941;SDS011;59997;53.300;-6.260;2022-11-15T14:57:46;11.02;;;1.63;;
71941;SDS011;59997;53.300;-6.260;2022-11-15T15:00:12;9.07;;;0.90;;
71941;SDS011;59997;53.300;-6.260;2022-11-15T15:02:39;11.50;;;1.00;;
71941;SDS011;59997;53.300;-6.260;2022-11-15T15:05:26;8.23;;;0.90;;
71941;SDS011;59997;53.300;-6.260;2022-11-15T15:07:58;8.18;;;1.10;;
71941;SDS011;59997;53.300;-6.260;2022-11-15T15:10:24;9.33;;;1.17;;
71941;SDS011;59997;53.300;-6.260;2022-11-15T15:12:52;9.00;;;1.15;;
71941;SDS011;59997;53.300;-6.260;2022-11-15T15:15:19;7.30;;;0.73;;
71941;SDS011;59997;53.300;-6.260;2022-11-15T15:17:48;7.47;;;0.85;;
71941;SDS011;59997;53.300;-6.260;2022-11-15T15:20:14;6.13;;;0.90;;
71941;SDS011;59997;53.300;-6.260;2022-11-15T15:22:40;12.95;;;1.48;;
71941;SDS011;59997;53.300;-6.260;2022-11-15T15:27:53;7.82;;;1.35;;
71941;SDS011;59997;53.300;-6.260;2022-11-15T15:30:19;7.80;;;1.60;;
71941;SDS011;59997;53.300;-6.260;2022-11-15T15:32:45;10.55;;;1.00;;
71941;SDS011;59997;53.300;-6.260;2022-11-15T15:35:11;7.73;;;0.70;;
71941;SDS011;59997;53.300;-6.260;2022-11-15T15:37:38;11.50;;;1.50;;
71941;SDS011;59997;53.300;-6.260;2022-11-15T15:40:08;8.20;;;0.70;;
71941;SDS011;59997;53.300;-6.260;2022-11-15T15:42:37;9.17;;;0.73;;
71941;SDS011;59997;53.300;-6.260;2022-11-15T15:45:03;5.47;;;0.88;;
71941;SDS011;59997;53.300;-6.260;2022-11-15T15:47:29;9.80;;;1.13;;
71941;SDS011;59997;53.300;-6.260;2022-11-15T15:49:54;9.25;;;1.30;;
71941;SDS011;59997;53.300;-6.260;2022-11-15T15:52:19;10.40;;;1.60;;
71941;SDS011;59997;53.300;-6.260;2022-11-15T15:54:45;8.97;;;1.33;;
71941;SDS011;59997;53.300;-6.260;2022-11-15T15:57:11;10.47;;;1.30;;
71941;SDS011;59997;53.300;-6.260;2022-11-15T15:59:37;9.63;;;1.42;;
71941;SDS011;59997;53.300;-6.260;2022-11-15T16:02:03;8.77;;;1.60;;
71941;SDS011;59997;53.300;-6.260;2022-11-15T16:04:31;9.52;;;2.10;;
71941;SDS011;59997;53.300;-6.260;2022-11-15T16:07:00;14.00;;;1.90;;
71941;SDS011;59997;53.300;-6.260;2022-11-15T16:09:25;10.00;;;1.48;;
71941;SDS011;59997;53.300;-6.260;2022-11-15T16:12:30;12.60;;;1.70;;
71941;SDS011;59997;53.300;-6.260;2022-11-15T16:14:57;10.48;;;1.85;;
71941;SDS011;59997;53.300;-6.260;2022-11-15T16:17:27;14.00;;;2.00;;
71941;SDS011;59997;53.300;-6.260;2022-11-15T16:19:56;11.30;;;1.77;;
71941;SDS011;59997;53.300;-6.260;2022-11-15T16:22:21;9.82;;;1.52;;
71941;SDS011;59997;53.300;-6.260;2022-11-15T16:24:46;7.10;;;1.13;;
71941;SDS011;59997;53.300;-6.260;2022-11-15T16:27:13;9.40;;;1.40;;
71941;SDS011;59997;53.300;-6.260;2022-11-15T16:29:43;7.57;;;0.80;;
71941;SDS011;59997;53.300;-6.260;2022-11-15T16:32:09;9.27;;;1.58;;
71941;SDS011;59997;53.300;-6.260;2022-11-15T16:34:35;9.27;;;1.20;;
71941;SDS011;59997;53.300;-6.260;2022-11-15T16:37:00;10.32;;;1.42;;
71941;SDS011;59997;53.300;-6.260;2022-11-15T16:39:26;7.40;;;1.20;;
71941;SDS011;59997;53.300;-6.260;2022-11-15T16:41:55;10.38;;;1.63;;
71941;SDS011;59997;53.300;-6.260;2022-11-15T16:44:21;6.95;;;1.65;;
71941;SDS011;59997;53.300;-6.260;2022-11-15T16:46:48;10.43;;;1.30;;
71941;SDS011;59997;53.300;-6.260;2022-11-15T16:49:16;11.30;;;1.20;;
71941;SDS011;59997;53.300;-6.260;2022-11-15T16:51:43;12.93;;;1.60;;